Tiempo atmosférico en la estación meteorológica de Teror, Las Palmas (683 m.)



Fecha
DESCASC
Temp. máxima en grados centígrados (hora)
DESCASC
Temp. mínima en grados centígrados (hora)
DESCASC
Temp. media en grados centígrados
DESCASC
Racha de viento máxima en m/sg (hora)
DESCASC
Velocidad máxima media en intervalos de 10 minutos(hora)
DESCASC
Precipitaciones diarias en mm
DESCASC
Precipitaciones de 00:00 a 06:00 en mm
DESCASC
Precipitaciones de 06:00 a 12:00 en mm
DESCASC
Precipitaciones de 12:00 a 18:00 en mm
DESCASC
Precipitaciones de 18:00 a 24:00 en mm
DESCASC
24-01-2021 23.6 (10:30) 9 (00:00) 16.3 4.72 (11:30) 2.5 (10:40) 0 0 0 0 0
06-01-2021 22.5 (11:00) 11.1 (00:00) 16.8 16.39 (06:30) 6.67 (16:00) 1.4 0 0 1.4 0
28-12-2020 21.8 (10:30) 7.2 (00:00) 14.5 5.83 (13:40) 3.33 (14:00) 0 0 0 0 0
05-01-2021 21.7 (11:30) 10.4 (00:00) 16.1 6.67 (13:40) 3.61 (13:40) 0 0 0 0 0
25-01-2021 20.9 (09:30) 8.8 (00:00) 14.8 3.89 (15:10) 1.94 (01:20) 0 0 0 0 0
23-01-2021 20.1 (12:00) 9.4 (00:00) 14.8 4.72 (14:00) 2.78 (13:00) 0.2 0.2 0 0 0
07-01-2021 20.1 (09:50) 12.6 (00:00) 16.4 19.72 (17:10) 8.06 (17:10) 6.8 0 4.4 0.6 1.8
21-01-2021 19.3 (17:20) 8.3 (00:00) 13.8 5.28 (13:50) 3.33 (10:30) 0.6 0 0 0 0.6
20-01-2021 18.3 (11:30) 5.4 (00:00) 11.8 5.83 (22:10) 3.61 (13:20) 0 0 0 0 0
18-01-2021 18.2 (11:30) 5.6 (00:00) 11.9 5 (11:10) 2.5 (11:10) 0 0 0 0 0
26-01-2021 18.1 (12:50) 8.2 (00:00) 13.2 5.56 (11:50) 2.78 (13:20) 0 0 0 0 0
29-12-2020 18 (12:40) 6.8 (00:00) 12.4 4.72 (12:20) 2.78 (13:40) 0 0 0 0 0
04-01-2021 17.8 (11:40) 9.3 (00:00) 13.5 8.89 (19:10) 3.33 (16:10) 0.2 0 0.2 0 0
19-01-2021 17.4 (11:20) 5.6 (00:00) 11.5 5.83 (14:50) 3.89 (14:50) 0.2 0.2 0 0 0
30-12-2020 17.2 (12:10) 7.6 (00:00) 12.4 5 (12:40) 3.06 (12:50) 3.4 0 0 2.8 0.6
22-01-2021 17.1 (11:50) 10.3 (00:00) 13.7 4.17 (14:20) 2.5 (10:20) 1.6 0.8 0.8 0 0
17-01-2021 16.9 (12:00) 7.2 (00:00) 12 6.11 (12:40) 3.61 (12:30) 0 0 0 0 0
16-01-2021 16.9 (10:50) 9.1 (00:00) 13 6.39 (11:20) 3.33 (13:00) 0.4 0 0.2 0 0.2
08-01-2021 16.4 (00:10) 8.8 (00:00) 12.6 15.83 (04:30) 6.67 (01:30) 81.2 3.2 9.2 45 23.8
31-12-2020 15.7 (10:30) 9 (00:00) 12.3 4.72 (18:50) 2.5 (15:30) 1 0 0.2 0.8 0
13-01-2021 14.3 (14:40) 8.4 (00:00) 11.3 6.39 (13:30) 3.61 (14:40) 0.8 0.8 0 0 0
01-01-2021 14.1 (13:50) 8.9 (00:00) 11.5 5.83 (13:40) 3.06 (11:40) 0.6 0 0.6 0 0
03-01-2021 14 (12:20) 8.8 (00:00) 11.4 4.17 (18:30) 2.22 (18:30) 0 0 0 0 0
02-01-2021 14 (15:40) 8.7 (00:00) 11.3 3.61 (16:40) 2.22 (16:40) 0 0 0 0 0
15-01-2021 13.9 (13:50) 8.8 (00:00) 11.3 6.67 (23:00) 2.78 (13:50) 0 0 0 0 0
14-01-2021 13.7 (12:00) 7 (22:40) 10.3 5.28 (19:50) 2.78 (15:40) 0.4 0 0 0.2 0.2
12-01-2021 13.7 (14:40) 7.8 (00:00) 10.8 6.67 (05:50) 3.61 (05:50) 31.6 14.8 5.8 10.8 0.2
09-01-2021 13.3 (12:40) 7.9 (00:00) 10.6 10.83 (16:30) 5.83 (17:30) 9.6 5.8 0.8 2.4 0.6
11-01-2021 13.1 (12:10) 8.1 (00:00) 10.6 10.83 (00:40) 5.56 (00:40) 11 7.8 0 2.8 0.4
10-01-2021 13.1 (13:00) 8.7 (06:50) 10.9 12.22 (12:00) 6.11 (22:30) 17.8 5 5.6 0.2 7

Gráficas

Temp. máximas Temp. mínimas Temp. medias Precipitaciones Rachas de viento máximas Velocidades máximas media en intervalos de 10 minutos

Datos horarios

Fecha y hora oficial Temperatura (ºC) Velocidad del viento (km/h) Dirección del viento Racha (km/h) Dirección de racha Precipitación (mm) Presión (hPa) Tendencia (hPa) Humedad (%)
2021-01-26 23:00:00 10.9 4 Oeste 7 Oeste 0 -- -- 100
2021-01-26 22:00:00 9.3 5 Noroeste 9 Oeste 0 -- -- 100
2021-01-26 21:00:00 11.4 4 Oeste 9 Oeste 0 -- -- 100
2021-01-26 20:00:00 10.6 4 Oeste 6 Oeste 0 -- -- 99
2021-01-26 19:00:00 9.7 3 Oeste 9 Este 0 -- -- 96
2021-01-26 18:00:00 12.7 2 Sudeste 10 Nordeste 0 -- -- 92
2021-01-26 17:00:00 15.8 6 Nordeste 12 Nordeste 0 -- -- 84
2021-01-26 16:00:00 16 7 Nordeste 14 Nordeste 0 -- -- 81
2021-01-26 15:00:00 16.4 8 Nordeste 16 Nordeste 0 -- -- 82
2021-01-26 14:00:00 17.7 8 Nordeste 16 Nordeste 0 -- -- 79
2021-01-26 13:00:00 17.9 9 Este 19 Este 0 -- -- 73
2021-01-26 12:00:00 17.1 9 Este 20 Este 0 -- -- 74
2021-01-26 11:00:00 17.8 7 Sudeste 17 Sur 0 -- -- 76
2021-01-26 10:00:00 13.2 8 Sudeste 16 Este 0 -- -- 91
2021-01-26 09:00:00 12.4 6 Sudeste 16 Sur 0 -- -- 94
2021-01-26 08:00:00 11.5 8 Sudeste 14 Sudeste 0 -- -- 96
2021-01-26 07:00:00 11.2 4 Sur 13 Sur 0 -- -- 98
2021-01-26 06:00:00 11.1 4 Sudeste 11 Sur 0 -- -- 99
2021-01-26 05:00:00 11.1 2 Sur 10 Noroeste 0 -- -- 99
2021-01-26 04:00:00 10.6 0 Calma 9 Sudeste 0 -- -- 99
2021-01-26 03:00:00 10.2 0 Calma 6 Oeste 0 -- -- 100
2021-01-26 02:00:00 8.6 2 Sur 9 Sudoeste 0 -- -- 98
2021-01-26 01:00:00 10.8 3 Sudoeste 9 Sudoeste 0 -- -- 97
2021-01-26 00:00:00 10.8 3 Sudoeste 6 Sudoeste 0 -- -- 96
2021-01-25 23:00:00 11.4 4 Sur 9 Sudeste 0 -- -- 96
2021-01-25 22:00:00 12 4 Sudeste 8 Sudeste 0 -- -- 94
2021-01-25 21:00:00 12 3 Sudeste 9 Sudeste 0 -- -- 95
2021-01-25 20:00:00 12.2 5 Este 10 Norte 0 -- -- 96
2021-01-25 19:00:00 12.3 2 Este 10 Nordeste 0 -- -- 96
2021-01-25 18:00:00 13.1 6 Nordeste 10 Nordeste 0 -- -- 94
2021-01-25 17:00:00 15.8 3 Nordeste 11 Nordeste 0 -- -- 86
2021-01-25 16:00:00 17 5 Nordeste 14 Este 0 -- -- 81
2021-01-25 15:00:00 17.5 5 Nordeste 11 Este 0 -- -- 80
2021-01-25 14:00:00 17.3 6 Nordeste 13 Nordeste 0 -- -- 80
2021-01-25 13:00:00 18.8 7 Nordeste 12 Nordeste 0 -- -- 77
2021-01-25 12:00:00 16.2 4 Nordeste 10 Nordeste 0 -- -- 86
2021-01-25 11:00:00 17.7 6 Nordeste 12 Este 0 -- -- 79
2021-01-25 10:00:00 20 4 Este 7 Nordeste 0 -- -- 55
2021-01-25 09:00:00 16.6 2 Nordeste 5 Nordeste 0 -- -- 63
2021-01-25 08:00:00 9.7 3 Sudoeste 6 Sudoeste 0 -- -- 82
2021-01-25 07:00:00 9.3 5 Oeste 8 Oeste 0 -- -- 82
2021-01-25 06:00:00 9.7 5 Oeste 8 Oeste 0 -- -- 79
2021-01-25 05:00:00 9.9 2 Sudoeste 6 Oeste 0 -- -- 80
2021-01-25 04:00:00 9.8 3 Sudoeste 6 Sudoeste 0 -- -- 81
2021-01-25 03:00:00 10 4 Sudoeste 6 Sudoeste 0 -- -- 79
2021-01-25 02:00:00 10.5 4 Sudoeste 12 Sudoeste 0 -- -- 77
2021-01-25 01:00:00 10.4 2 Sudoeste 8 Oeste 0 -- -- 78
2021-01-25 00:00:00 10.4 4 Oeste 8 Oeste 0 -- -- 78
2021-01-24 23:00:00 10.6 3 Oeste 7 Oeste 0 -- -- 77
2021-01-24 22:00:00 10 4 Oeste 7 Oeste 0 -- -- 80
2021-01-24 21:00:00 10.3 5 Sudoeste 6 Sudoeste 0 -- -- 83
2021-01-24 20:00:00 10.7 3 Sudoeste 7 Sudoeste 0 -- -- 83
2021-01-24 19:00:00 11.8 5 Sudoeste 9 Sudoeste 0 -- -- 82
2021-01-24 18:00:00 14.1 3 Sur 8 Sudeste 0 -- -- 74
2021-01-24 17:00:00 19.8 2 Sudeste 6 Sudeste 0 -- -- 71
2021-01-24 16:00:00 19 3 Sudeste 10 Sudeste 0 -- -- 64
2021-01-24 15:00:00 19.5 4 Este 10 Nordeste 0 -- -- 70
2021-01-24 14:00:00 21 6 Este 12 Sudeste 0 -- -- 60
2021-01-24 13:00:00 21.1 6 Nordeste 14 Este 0 -- -- 61
2021-01-24 12:00:00 21.4 6 Este 17 Este 0 -- -- 64
2021-01-24 11:00:00 23.1 9 Este 15 Sudeste 0 -- -- 43
2021-01-24 10:00:00 20.9 8 Sudeste 13 Este 0 -- -- 48
2021-01-24 09:00:00 14.8 5 Sur 11 Sur 0 -- -- 63
2021-01-24 08:00:00 14.5 6 Sur 11 Sur 0 -- -- 59
2021-01-24 07:00:00 14 6 Sudoeste 13 Sudoeste 0 -- -- 61
2021-01-24 06:00:00 13.9 6 Sur 14 Sur 0 -- -- 60
2021-01-24 05:00:00 13.5 6 Sur 11 Sur 0 -- -- 62
2021-01-24 04:00:00 10.9 3 Sur 10 Sur 0 -- -- 75
2021-01-24 03:00:00 13.3 5 Sur 12 Sur 0 -- -- 62
2021-01-24 02:00:00 11.4 5 Sudoeste 10 Sudoeste 0 -- -- 89
2021-01-24 01:00:00 9 2 Sur 8 Oeste 0 -- -- 100
2021-01-24 00:00:00 11 4 Sur 7 Sur 0 -- -- 100
2021-01-23 23:00:00 10.9 3 Sur 8 Sudoeste 0 -- -- 99
2021-01-23 22:00:00 10.4 3 Sudoeste 8 Sudoeste 0 -- -- 100
2021-01-23 21:00:00 9.4 0 Calma 6 Oeste 0 -- -- 97
2021-01-23 20:00:00 10.6 2 Oeste 10 Sudoeste 0 -- -- 96
2021-01-23 19:00:00 11.2 6 Sudoeste 10 Sudoeste 0 -- -- 94
2021-01-23 18:00:00 13.7 4 Sudeste 9 Este 0 -- -- 92
2021-01-23 17:00:00 15.5 3 Este 12 Este 0 -- -- 86
2021-01-23 16:00:00 17.3 5 Este 14 Este 0 -- -- 82
2021-01-23 15:00:00 18.2 8 Este 15 Este 0 -- -- 77
2021-01-23 14:00:00 17.3 10 Nordeste 17 Nordeste 0 -- -- 81
2021-01-23 13:00:00 18.3 10 Nordeste 16 Nordeste 0 -- -- 76
2021-01-23 12:00:00 20.1 5 Sudeste 12 Este 0 -- -- 68
2021-01-23 11:00:00 15.4 5 Este 10 Este 0 -- -- 97
2021-01-23 10:00:00 15.4 4 Sudeste 9 Sudeste 0 -- -- 100
2021-01-23 09:00:00 13.5 5 Sudoeste 9 Sudoeste 0 -- -- 100
2021-01-23 08:00:00 12.2 4 Sudoeste 6 Sudoeste 0 -- -- 100
2021-01-23 07:00:00 11.1 2 Sudeste 7 Sudoeste 0 -- -- 100
2021-01-23 06:00:00 11.7 3 Sudoeste 8 Sudoeste 0.2 -- -- 100
2021-01-23 05:00:00 11.9 4 Sudoeste 9 Sudoeste 0 -- -- 100
2021-01-23 04:00:00 11.7 3 Sudoeste 8 Sur 0 -- -- 100
2021-01-23 03:00:00 11.6 3 Sur 7 Sudoeste 0 -- -- 100
2021-01-23 02:00:00 12.4 4 Sudoeste 6 Sudoeste 0 -- -- 100
2021-01-23 01:00:00 12.9 2 Sudoeste 8 Sudoeste 0 -- -- 100
2021-01-23 00:00:00 13.1 3 Sur 7 Sur 0 -- -- 100
2021-01-22 23:00:00 13.2 2 Sur 10 Sudoeste 0 -- -- 100
2021-01-22 22:00:00 13 0 Calma 7 Nordeste 0 -- -- 99
2021-01-22 21:00:00 13.2 2 Sudoeste 9 Sudoeste 0 -- -- 98
2021-01-22 20:00:00 13.5 2 Noroeste 6 Sudeste 0 -- -- 98
2021-01-22 19:00:00 13.5 3 Sudoeste 10 Este 0 -- -- 97
2021-01-22 18:00:00 13.8 4 Nordeste 10 Nordeste 0 -- -- 95
2021-01-22 17:00:00 14.2 7 Nordeste 12 Nordeste 0 -- -- 95
2021-01-22 16:00:00 14.7 5 Nordeste 12 Nordeste 0 -- -- 95
2021-01-22 15:00:00 14.5 5 Nordeste 15 Nordeste 0 -- -- 96
2021-01-22 14:00:00 15.3 5 Norte 15 Norte 0 -- -- 92
2021-01-22 13:00:00 16.8 6 Nordeste 14 Nordeste 0 -- -- 84
2021-01-22 12:00:00 16.8 4 Nordeste 12 Nordeste 0 -- -- 88
2021-01-22 11:00:00 14.7 7 Norte 14 Norte 0 -- -- 98
2021-01-22 10:00:00 15.8 4 Este 10 Norte 0.2 -- -- 95
2021-01-22 09:00:00 15 5 Oeste 9 Oeste 0 -- -- 100
2021-01-22 08:00:00 13.4 2 Sudoeste 5 Sudoeste 0.4 -- -- 100
2021-01-22 07:00:00 13.6 4 Noroeste 8 Noroeste 0.2 -- -- 100
2021-01-22 06:00:00 13.5 4 Noroeste 10 Noroeste 0 -- -- 100
2021-01-22 05:00:00 10.3 3 Sudoeste 8 Noroeste 0 -- -- 99
2021-01-22 04:00:00 11.3 4 Norte 6 Noroeste 0 -- -- 100
2021-01-22 03:00:00 13.4 3 Oeste 6 Oeste 0.2 -- -- 99
2021-01-22 02:00:00 13.7 6 Oeste 11 Oeste 0.2 -- -- 99
2021-01-22 01:00:00 13.6 5 Noroeste 9 Norte 0.4 -- -- 99
2021-01-22 00:00:00 13.7 3 Oeste 10 Norte 0.4 -- -- 99
2021-01-21 23:00:00 13.9 5 Norte 13 Noroeste 0.2 -- -- 99
2021-01-21 22:00:00 12.5 7 Noroeste 10 Noroeste 0 -- -- 97
2021-01-21 21:00:00 10.1 5 Oeste 9 Oeste 0 -- -- 81
2021-01-21 20:00:00 10.3 5 Oeste 12 Oeste 0 -- -- 74
2021-01-21 19:00:00 11.1 4 Oeste 12 Oeste 0 -- -- 83
2021-01-21 18:00:00 13.7 4 Oeste 13 Noroeste 0 -- -- 92
2021-01-21 17:00:00 18 5 Nordeste 17 Norte 0 -- -- 81
2021-01-21 16:00:00 17.8 6 Nordeste 17 Norte 0 -- -- 79
2021-01-21 15:00:00 17.8 9 Norte 15 Norte 0 -- -- 82
2021-01-21 14:00:00 17.5 10 Nordeste 19 Nordeste 0 -- -- 80
2021-01-21 13:00:00 17.8 10 Norte 18 Norte 0 -- -- 81
2021-01-21 12:00:00 17.9 9 Nordeste 15 Nordeste 0 -- -- 78
2021-01-21 11:00:00 17.8 8 Nordeste 18 Norte 0 -- -- 78
2021-01-21 10:00:00 14.8 3 Oeste 17 Noroeste 0 -- -- 99
2021-01-21 09:00:00 12.2 3 Noroeste 14 Noroeste 0 -- -- 100
2021-01-21 08:00:00 11.5 4 Noroeste 6 Noroeste 0 -- -- 100
2021-01-21 07:00:00 11.1 4 Noroeste 9 Noroeste 0 -- -- 100
2021-01-21 06:00:00 10.1 5 Noroeste 10 Noroeste 0 -- -- 99
2021-01-21 05:00:00 10.6 2 Noroeste 11 Oeste 0 -- -- 100
2021-01-21 04:00:00 9.3 3 Sudoeste 10 Noroeste 0 -- -- 99
2021-01-21 03:00:00 9.2 5 Noroeste 13 Noroeste 0 -- -- 96
2021-01-21 02:00:00 9.1 3 Sudoeste 16 Oeste 0 -- -- 92
2021-01-21 01:00:00 9.6 2 Sudeste 7 Sudoeste 0 -- -- 91
2021-01-21 00:00:00 9.6 2 Oeste 14 Oeste 0 -- -- 89
2021-01-20 23:00:00 11.4 4 Oeste 21 Noroeste 0 -- -- 80
2021-01-20 22:00:00 8.6 9 Noroeste 18 Noroeste 0 -- -- 76
2021-01-20 21:00:00 8.5 3 Sudoeste 11 Oeste 0 -- -- 95
2021-01-20 20:00:00 11.5 4 Oeste 6 Noroeste 0 -- -- 95
2021-01-20 19:00:00 12.1 3 Norte 7 Norte 0 -- -- 94
2021-01-20 18:00:00 13 4 Nordeste 8 Nordeste 0 -- -- 91
2021-01-20 17:00:00 14.1 4 Nordeste 10 Nordeste 0 -- -- 88
2021-01-20 16:00:00 14.9 6 Nordeste 12 Este 0 -- -- 84
2021-01-20 15:00:00 14.9 4 Nordeste 15 Nordeste 0 -- -- 84
2021-01-20 14:00:00 15.7 5 Nordeste 20 Norte 0 -- -- 81
2021-01-20 13:00:00 17.4 4 Nordeste 13 Norte 0 -- -- 72
2021-01-20 12:00:00 17.6 6 Nordeste 13 Este 0 -- -- 66
2021-01-20 11:00:00 17.5 8 Sudeste 13 Sudeste 0 -- -- 66
2021-01-20 10:00:00 15.9 5 Este 10 Sudeste 0 -- -- 72
2021-01-20 09:00:00 11.9 5 Norte 11 Norte 0 -- -- 91
2021-01-20 08:00:00 6.1 4 Oeste 11 Oeste 0 -- -- 99
2021-01-20 07:00:00 6.4 5 Oeste 10 Oeste 0 -- -- 98
2021-01-20 06:00:00 6.3 5 Oeste 10 Noroeste 0 -- -- 97
2021-01-20 05:00:00 5.8 5 Sudoeste 10 Noroeste 0 -- -- 96
2021-01-20 04:00:00 5.7 4 Oeste 10 Sur 0 -- -- 88
2021-01-20 03:00:00 6.3 6 Oeste 10 Sudoeste 0 -- -- 88
2021-01-20 02:00:00 5.9 2 Sudoeste 9 Oeste 0 -- -- 92
2021-01-20 01:00:00 6.7 3 Oeste 9 Sudoeste 0 -- -- 93
2021-01-20 00:00:00 5.8 3 Sudoeste 8 Sudoeste 0 -- -- 97
2021-01-19 23:00:00 6 3 Oeste 8 Sudoeste 0 -- -- 95
2021-01-19 22:00:00 7.6 6 Noroeste 12 Sudoeste 0 -- -- 87
2021-01-19 21:00:00 6.5 4 Sudoeste 8 Oeste 0 -- -- 96
2021-01-19 20:00:00 7.9 2 Sudoeste 9 Sudoeste 0 -- -- 98
2021-01-19 19:00:00 8.2 3 Sudoeste 10 Norte 0 -- -- 96
2021-01-19 18:00:00 11.4 5 Noroeste 14 Norte 0 -- -- 92
2021-01-19 17:00:00 12.5 8 Norte 17 Noroeste 0 -- -- 90
2021-01-19 16:00:00 14.3 5 Nordeste 16 Noroeste 0 -- -- 82
2021-01-19 15:00:00 13.5 14 Noroeste 21 Noroeste 0 -- -- 86
2021-01-19 14:00:00 17 8 Norte 15 Norte 0 -- -- 72
2021-01-19 13:00:00 16.7 6 Norte 15 Noroeste 0 -- -- 72
2021-01-19 12:00:00 17.4 5 Este 13 Este 0 -- -- 69
2021-01-19 11:00:00 16.6 8 Este 14 Este 0 -- -- 68
2021-01-19 10:00:00 15.3 5 Sudeste 11 Sudeste 0 -- -- 70
2021-01-19 09:00:00 10.7 4 Sudoeste 9 Sudoeste 0 -- -- 100
2021-01-19 08:00:00 7.5 6 Sudoeste 9 Sudoeste 0 -- -- 100
2021-01-19 07:00:00 8.5 5 Sudoeste 9 Sur 0 -- -- 100
2021-01-19 06:00:00 5.6 4 Sudoeste 7 Sudoeste 0.2 -- -- 100
2021-01-19 05:00:00 6 4 Sudoeste 8 Sudoeste 0 -- -- 100
2021-01-19 04:00:00 5.7 4 Sudoeste 6 Oeste 0 -- -- 100
2021-01-19 03:00:00 6.2 4 Sudoeste 8 Sudoeste 0 -- -- 100
2021-01-19 02:00:00 7.2 3 Oeste 9 Oeste 0 -- -- 99
2021-01-19 01:00:00 8.3 3 Oeste 9 Noroeste 0 -- -- 99
2021-01-19 00:00:00 8.1 4 Oeste 10 Noroeste 0 -- -- 100
2021-01-18 23:00:00 6.4 0 Calma 8 Noroeste 0 -- -- 100
2021-01-18 22:00:00 6.6 4 Oeste 6 Sudoeste 0 -- -- 100
2021-01-18 21:00:00 7.4 2 Noroeste 8 Oeste 0 -- -- 98
2021-01-18 20:00:00 7.9 0 Calma 7 Oeste 0 -- -- 98
2021-01-18 19:00:00 9.6 0 Calma 6 Noroeste 0 -- -- 97
2021-01-18 18:00:00 11.5 0 Calma 6 Nordeste 0 -- -- 91
2021-01-18 17:00:00 14 4 Nordeste 8 Nordeste 0 -- -- 86
2021-01-18 16:00:00 14 5 Nordeste 15 Nordeste 0 -- -- 88
2021-01-18 15:00:00 15.7 9 Nordeste 15 Nordeste 0 -- -- 80
2021-01-18 14:00:00 17.2 6 Sudeste 16 Este 0 -- -- 74
2021-01-18 13:00:00 16.5 8 Nordeste 17 Nordeste 0 -- -- 74
2021-01-18 12:00:00 18.1 9 Este 18 Sudeste 0 -- -- 65
2021-01-18 11:00:00 17 7 Este 15 Este 0 -- -- 71
2021-01-18 10:00:00 15.4 6 Sudeste 12 Sudeste 0 -- -- 72
2021-01-18 09:00:00 11 4 Sur 8 Sur 0 -- -- 100
2021-01-18 08:00:00 7.4 5 Sudoeste 9 Sudoeste 0 -- -- 100
2021-01-18 07:00:00 7.9 6 Sudoeste 9 Sudoeste 0 -- -- 100
2021-01-18 06:00:00 8.4 3 Sudoeste 8 Oeste 0 -- -- 100
2021-01-18 05:00:00 7.4 5 Sudoeste 8 Oeste 0 -- -- 99
2021-01-18 04:00:00 7.2 4 Oeste 9 Oeste 0 -- -- 100
2021-01-18 03:00:00 5.7 4 Sudoeste 6 Sudoeste 0 -- -- 100
2021-01-18 02:00:00 7.9 5 Sudoeste 8 Sur 0 -- -- 98
2021-01-18 01:00:00 8.2 4 Sudoeste 7 Sudoeste 0 -- -- 98
2021-01-18 00:00:00 7.2 3 Sudoeste 8 Sur 0 -- -- 98
2021-01-17 23:00:00 8.9 4 Sudoeste 11 Sudoeste 0 -- -- 96
2021-01-17 22:00:00 9.9 5 Sudoeste 6 Sur 0 -- -- 94
2021-01-17 21:00:00 10.1 2 Norte 6 Norte 0 -- -- 93
2021-01-17 20:00:00 10.6 4 Sur 9 Este 0 -- -- 92
2021-01-17 19:00:00 11.1 0 Calma 8 Este 0 -- -- 92
2021-01-17 18:00:00 11.8 4 Nordeste 9 Nordeste 0 -- -- 89
2021-01-17 17:00:00 12.6 5 Nordeste 12 Nordeste 0 -- -- 85
2021-01-17 16:00:00 13.6 7 Nordeste 15 Este 0 -- -- 82
2021-01-17 15:00:00 14.6 6 Este 16 Sudeste 0 -- -- 78
2021-01-17 14:00:00 16.4 9 Este 18 Sudeste 0 -- -- 73
2021-01-17 13:00:00 16.3 10 Este 22 Este 0 -- -- 72
2021-01-17 12:00:00 16.9 12 Este 21 Este 0 -- -- 68
2021-01-17 11:00:00 14.4 9 Sudeste 18 Sudeste 0 -- -- 73
2021-01-17 10:00:00 12.7 6 Este 12 Sudeste 0 -- -- 77
2021-01-17 09:00:00 10.9 3 Sudeste 12 Sudeste 0 -- -- 87
2021-01-17 08:00:00 9.8 4 Sudeste 11 Sudeste 0 -- -- 88
2021-01-17 07:00:00 9.6 4 Sur 10 Sudeste 0 -- -- 89
2021-01-17 06:00:00 10.2 3 Sur 7 Sudeste 0 -- -- 87
2021-01-17 05:00:00 10.3 4 Este 11 Sudoeste 0 -- -- 89
2021-01-17 04:00:00 10.2 6 Sur 13 Sudoeste 0 -- -- 87
2021-01-17 03:00:00 10.1 6 Sudeste 13 Este 0 -- -- 89
2021-01-17 02:00:00 10.2 5 Sur 13 Sudeste 0 -- -- 87
2021-01-17 01:00:00 10.1 3 Sudeste 12 Sudeste 0 -- -- 89
2021-01-17 00:00:00 10.1 2 Sur 10 Sudeste 0 -- -- 91
2021-01-16 23:00:00 10.1 0 Calma 9 Sudeste 0 -- -- 92
2021-01-16 22:00:00 10.3 5 Este 13 Este 0 -- -- 91
2021-01-16 21:00:00 10.2 3 Este 10 Este 0 -- -- 93
2021-01-16 20:00:00 11.1 3 Nordeste 14 Este 0 -- -- 97
2021-01-16 19:00:00 11.7 4 Este 13 Sudeste 0.2 -- -- 97
2021-01-16 18:00:00 12.3 6 Este 16 Este 0 -- -- 87
2021-01-16 17:00:00 12.7 10 Este 20 Este 0 -- -- 83
2021-01-16 16:00:00 15 9 Este 18 Este 0 -- -- 73
2021-01-16 15:00:00 13.5 10 Nordeste 20 Nordeste 0 -- -- 82
2021-01-16 14:00:00 14.3 11 Este 19 Este 0 -- -- 78
2021-01-16 13:00:00 14 12 Nordeste 21 Nordeste 0 -- -- 71
2021-01-16 12:00:00 15.2 5 Este 23 Este 0.2 -- -- 70
2021-01-16 11:00:00 16.6 7 Este 14 Sudeste 0 -- -- 63
2021-01-16 10:00:00 12.5 6 Sudeste 13 Este 0 -- -- 80
2021-01-16 09:00:00 10.7 4 Sur 9 Sur 0 -- -- 82
2021-01-16 08:00:00 9.9 4 Este 11 Este 0 -- -- 86
2021-01-16 07:00:00 10 3 Este 10 Sur 0 -- -- 87
2021-01-16 06:00:00 9.9 6 Sudeste 13 Sudeste 0 -- -- 86
2021-01-16 05:00:00 9.3 6 Sur 11 Sudeste 0 -- -- 88
2021-01-16 04:00:00 9.2 0 Calma 8 Sur 0 -- -- 90
2021-01-16 03:00:00 9.7 2 Nordeste 11 Este 0 -- -- 93
2021-01-16 02:00:00 10.1 4 Este 13 Sur 0 -- -- 81
2021-01-16 01:00:00 9.7 3 Sudeste 10 Sudeste 0 -- -- 85
2021-01-16 00:00:00 9.8 3 Este 18 Nordeste 0 -- -- 84
2021-01-15 23:00:00 10.3 9 Nordeste 24 Nordeste 0 -- -- 85
2021-01-15 22:00:00 10.3 2 Sur 8 Sudoeste 0 -- -- 86
2021-01-15 21:00:00 10 3 Sudoeste 12 Este 0 -- -- 84
2021-01-15 20:00:00 10.4 8 Nordeste 15 Nordeste 0 -- -- 83
2021-01-15 19:00:00 10.3 5 Norte 16 Nordeste 0 -- -- 84
2021-01-15 18:00:00 10.9 4 Este 14 Nordeste 0 -- -- 93
2021-01-15 17:00:00 11.7 7 Nordeste 17 Nordeste 0 -- -- 79
2021-01-15 16:00:00 12.1 6 Nordeste 15 Nordeste 0 -- -- 79
2021-01-15 15:00:00 11.2 6 Nordeste 16 Nordeste 0 -- -- 91
2021-01-15 14:00:00 13.7 10 Este 20 Nordeste 0 -- -- 74
2021-01-15 13:00:00 12 9 Nordeste 17 Este 0 -- -- 80
2021-01-15 12:00:00 11.3 8 Nordeste 16 Nordeste 0 -- -- 81
2021-01-15 11:00:00 11.6 5 Este 14 Este 0 -- -- 81
2021-01-15 10:00:00 10.5 2 Este 15 Este 0 -- -- 83
2021-01-15 09:00:00 10 4 Este 8 Este 0 -- -- 86
2021-01-15 08:00:00 9.7 3 Sudeste 10 Nordeste 0 -- -- 88
2021-01-15 07:00:00 9.8 3 Sudeste 13 Este 0 -- -- 88
2021-01-15 06:00:00 9.4 4 Oeste 8 Sudoeste 0 -- -- 86
2021-01-15 05:00:00 9.4 4 Este 15 Nordeste 0 -- -- 84
2021-01-15 04:00:00 8.8 2 Sur 12 Nordeste 0 -- -- 89
2021-01-15 03:00:00 9.3 3 Este 17 Este 0 -- -- 82
2021-01-15 02:00:00 10.2 6 Nordeste 21 Nordeste 0 -- -- 92
2021-01-15 01:00:00 9.9 6 Nordeste 18 Nordeste 0 -- -- 93
2021-01-15 00:00:00 9.5 3 Este 10 Sur 0.2 -- -- 93
2021-01-14 23:00:00 8.1 6 Sudoeste 10 Sur 0 -- -- 89
2021-01-14 22:00:00 7.6 0 Calma 8 Este 0 -- -- 90
2021-01-14 21:00:00 9.6 4 Nordeste 12 Nordeste 0 -- -- 87
2021-01-14 20:00:00 10.4 9 Nordeste 19 Norte 0 -- -- 89
2021-01-14 19:00:00 10.5 6 Nordeste 18 Nordeste 0 -- -- 88
2021-01-14 18:00:00 10.7 8 Nordeste 15 Nordeste 0 -- -- 88
2021-01-14 17:00:00 11.4 7 Norte 17 Norte 0 -- -- 85
2021-01-14 16:00:00 11.1 6 Nordeste 18 Nordeste 0 -- -- 89
2021-01-14 15:00:00 12.1 6 Nordeste 13 Norte 0 -- -- 85
2021-01-14 14:00:00 11.2 6 Nordeste 16 Nordeste 0 -- -- 86
2021-01-14 13:00:00 11.1 4 Nordeste 15 Este 0.2 -- -- 89
2021-01-14 12:00:00 13.7 5 Sudeste 18 Este 0 -- -- 79
2021-01-14 11:00:00 11 7 Sudeste 13 Sudeste 0 -- -- 89
2021-01-14 10:00:00 10.9 4 Este 12 Este 0 -- -- 90
2021-01-14 09:00:00 10.5 0 Calma 9 Nordeste 0 -- -- 94
2021-01-14 08:00:00 9.5 0 Calma 8 Nordeste 0 -- -- 97
2021-01-14 07:00:00 9.4 0 Calma 5 Este 0 -- -- 96
2021-01-14 06:00:00 9.4 3 Sur 9 Sur 0 -- -- 97
2021-01-14 05:00:00 9.4 4 Sudeste 8 Sur 0 -- -- 97
2021-01-14 04:00:00 9 5 Sudoeste 7 Sur 0 -- -- 98
2021-01-14 03:00:00 9.5 0 Calma 6 Nordeste 0 -- -- 98
2021-01-14 02:00:00 10.1 0 Calma 10 Sudeste 0 -- -- 96
2021-01-14 01:00:00 10.5 3 Sudeste 9 Este 0 -- -- 96
2021-01-14 00:00:00 10.1 2 Noroeste 9 Nordeste 0 -- -- 96
2021-01-13 23:00:00 9.6 4 Nordeste 9 Nordeste 0 -- -- 96
2021-01-13 22:00:00 10.1 2 Nordeste 12 Este 0 -- -- 93
2021-01-13 21:00:00 10.1 4 Nordeste 14 Norte 0 -- -- 92
2021-01-13 20:00:00 8.6 4 Oeste 6 Oeste 0 -- -- 94
2021-01-13 19:00:00 9.1 0 Calma 9 Norte 0 -- -- 92
2021-01-13 18:00:00 10.7 5 Norte 18 Nordeste 0 -- -- 87
2021-01-13 17:00:00 11.8 6 Nordeste 18 Norte 0 -- -- 83
2021-01-13 16:00:00 12.5 8 Nordeste 19 Norte 0 -- -- 82
2021-01-13 15:00:00 13 10 Nordeste 20 Nordeste 0 -- -- 80
2021-01-13 14:00:00 12.9 8 Nordeste 23 Norte 0 -- -- 84
2021-01-13 13:00:00 12.9 10 Nordeste 22 Nordeste 0 -- -- 79
2021-01-13 12:00:00 12.2 11 Nordeste 22 Nordeste 0 -- -- 84
2021-01-13 11:00:00 12.9 12 Nordeste 20 Nordeste 0 -- -- 89
2021-01-13 10:00:00 10.7 8 Nordeste 19 Norte 0 -- -- 95
2021-01-13 09:00:00 10.2 6 Nordeste 21 Nordeste 0 -- -- 98
2021-01-13 08:00:00 10.1 7 Nordeste 18 Nordeste 0 -- -- 99
2021-01-13 07:00:00 10.1 7 Nordeste 14 Nordeste 0 -- -- 99
2021-01-13 06:00:00 9.9 3 Nordeste 12 Nordeste 0 -- -- 99
2021-01-13 05:00:00 10.1 6 Nordeste 17 Norte 0.8 -- -- 99
2021-01-13 04:00:00 9.8 2 Sudoeste 12 Nordeste 0 -- -- 98
2021-01-13 03:00:00 9.8 0 Calma 9 Norte 0 -- -- 98
2021-01-13 02:00:00 10.1 6 Norte 16 Norte 0 -- -- 97
2021-01-13 01:00:00 10.3 9 Norte 17 Norte 0 -- -- 96
2021-01-13 00:00:00 9.8 4 Norte 14 Norte 0 -- -- 96
2021-01-12 23:00:00 9.9 6 Norte 13 Norte 0 -- -- 95
2021-01-12 22:00:00 10 9 Norte 19 Norte 0 -- -- 97
2021-01-12 21:00:00 9.7 5 Norte 16 Norte 0.2 -- -- 99
2021-01-12 20:00:00 9.4 4 Oeste 8 Noroeste 0 -- -- 98
2021-01-12 19:00:00 9.7 4 Norte 10 Sudeste 0 -- -- 97
2021-01-12 18:00:00 10 3 Noroeste 11 Norte 1 -- -- 93
2021-01-12 17:00:00 11.6 4 Norte 9 Nordeste 0 -- -- 84
2021-01-12 16:00:00 12.7 3 Nordeste 13 Norte 0 -- -- 78
2021-01-12 15:00:00 12.8 8 Nordeste 14 Nordeste 0 -- -- 76
2021-01-12 14:00:00 12.2 3 Norte 19 Noroeste 1.2 -- -- 84
2021-01-12 13:00:00 9.8 8 Nordeste 22 Nordeste 8.6 -- -- 97
2021-01-12 12:00:00 10.3 5 Nordeste 15 Norte 4.4 -- -- 93
2021-01-12 11:00:00 12.2 0 Calma 7 Sudoeste 0 -- -- 82
2021-01-12 10:00:00 10.7 4 Sudoeste 11 Sudoeste 0 -- -- 96
2021-01-12 09:00:00 8.5 3 Norte 9 Nordeste 0.8 -- -- 100
2021-01-12 08:00:00 8.5 4 Nordeste 11 Oeste 0.2 -- -- 100
2021-01-12 07:00:00 7.8 8 Noroeste 18 Norte 0.4 -- -- 99
2021-01-12 06:00:00 9.1 12 Norte 24 Nordeste 3.6 -- -- 99
2021-01-12 05:00:00 8.9 3 Sudoeste 18 Oeste 7 -- -- 98
2021-01-12 04:00:00 9.2 8 Oeste 19 Sudoeste 4.2 -- -- 97
2021-01-12 03:00:00 8.3 6 Noroeste 13 Noroeste 0 -- -- 94
2021-01-12 02:00:00 9.4 10 Noroeste 15 Noroeste 0 -- -- 90
2021-01-12 01:00:00 9.6 7 Norte 14 Norte 0 -- -- 89
2021-01-12 00:00:00 9.6 8 Norte 14 Norte 0 -- -- 90
2021-01-11 23:00:00 9.7 8 Norte 19 Norte 0 -- -- 91
2021-01-11 22:00:00 9.6 9 Noroeste 19 Norte 0 -- -- 92
2021-01-11 21:00:00 9.6 10 Norte 21 Norte 0 -- -- 93
2021-01-11 20:00:00 9.3 8 Noroeste 19 Norte 0 -- -- 95
2021-01-11 19:00:00 9.4 8 Norte 19 Nordeste 0.4 -- -- 98
2021-01-11 18:00:00 9.6 6 Norte 24 Norte 0.6 -- -- 97
2021-01-11 17:00:00 9.7 14 Norte 23 Noroeste 0.6 -- -- 94
2021-01-11 16:00:00 10.7 9 Norte 24 Norte 0.2 -- -- 89
2021-01-11 15:00:00 10.2 13 Norte 28 Norte 1.2 -- -- 95
2021-01-11 14:00:00 11 13 Norte 27 Noroeste 0 -- -- 91
2021-01-11 13:00:00 11.5 12 Norte 31 Norte 0.2 -- -- 84
2021-01-11 12:00:00 11.9 10 Norte 23 Oeste 0 -- -- 86
2021-01-11 11:00:00 9.7 10 Noroeste 33 Norte 0 -- -- 88
2021-01-11 10:00:00 11.4 8 Noroeste 25 Noroeste 0 -- -- 77
2021-01-11 09:00:00 10.6 10 Noroeste 20 Noroeste 0 -- -- 77
2021-01-11 08:00:00 8.6 8 Noroeste 15 Oeste 0 -- -- 83
2021-01-11 07:00:00 8.7 10 Noroeste 22 Norte 0 -- -- 85
2021-01-11 06:00:00 8.7 8 Norte 22 Norte 0 -- -- 82
2021-01-11 05:00:00 9 12 Norte 28 Noroeste 0 -- -- 85
2021-01-11 04:00:00 9 13 Norte 28 Norte 0 -- -- 88
2021-01-11 03:00:00 8.7 10 Norte 23 Norte 1 -- -- 98
2021-01-11 02:00:00 8.8 13 Norte 31 Norte 2.4 -- -- 100
2021-01-11 01:00:00 8.9 13 Norte 39 Norte 4.4 -- -- 99
2021-01-11 00:00:00 9.5 11 Norte 30 Norte 1.2 -- -- 99
2021-01-10 23:00:00 9.5 15 Norte 42 Noroeste 4 -- -- 98
2021-01-10 22:00:00 9.2 8 Noroeste 36 Norte 1.8 -- -- 96
2021-01-10 21:00:00 10.3 8 Norte 33 Noroeste 0 -- -- 85
2021-01-10 20:00:00 10.7 15 Norte 38 Norte 0 -- -- 82
2021-01-10 19:00:00 10.5 15 Noroeste 35 Noroeste 0 -- -- 79
2021-01-10 18:00:00 10.7 13 Norte 39 Norte 0 -- -- 88
2021-01-10 17:00:00 11.2 15 Norte 36 Norte 0 -- -- 88
2021-01-10 16:00:00 12 16 Norte 36 Norte 0 -- -- 78
2021-01-10 15:00:00 12.7 12 Norte 41 Noroeste 0 -- -- 69
2021-01-10 14:00:00 12.2 16 Noroeste 44 Noroeste 0 -- -- 79
2021-01-10 13:00:00 13.1 17 Noroeste 42 Noroeste 0.2 -- -- 74
2021-01-10 12:00:00 11 14 Norte 44 Noroeste 0.4 -- -- 94
2021-01-10 11:00:00 12.3 13 Norte 36 Norte 0 -- -- 80
2021-01-10 10:00:00 11.1 12 Norte 32 Noroeste 0 -- -- 85
2021-01-10 09:00:00 9.9 12 Norte 40 Norte 0.4 -- -- 91
2021-01-10 08:00:00 9.5 9 Norte 36 Noroeste 1.8 -- -- 97
2021-01-10 07:00:00 9 8 Este 42 Noroeste 3 -- -- 95
2021-01-10 06:00:00 9.2 11 Noroeste 37 Norte 0 -- -- 97
2021-01-10 05:00:00 8.9 9 Norte 36 Norte 4.2 -- -- 97
2021-01-10 04:00:00 9 16 Noroeste 36 Noroeste 0.2 -- -- 95
2021-01-10 03:00:00 9.6 10 Norte 30 Noroeste 0 -- -- 90
2021-01-10 02:00:00 9.3 8 Sur 26 Sudoeste 0.6 -- -- 86
2021-01-10 01:00:00 9.6 6 Norte 28 Oeste 0 -- -- 84
2021-01-10 00:00:00 9.5 9 Noroeste 30 Norte 0 -- -- 90
2021-01-09 23:00:00 9.7 12 Noroeste 30 Noroeste 0 -- -- 88
2021-01-09 22:00:00 9.3 14 Norte 38 Norte 0 -- -- 82
2021-01-09 21:00:00 9.4 14 Norte 32 Norte 0 -- -- 84
2021-01-09 20:00:00 9 10 Norte 24 Norte 0 -- -- 88
2021-01-09 19:00:00 8.8 12 Norte 36 Norte 0.6 -- -- 90
2021-01-09 18:00:00 9.4 16 Norte 39 Norte 0 -- -- 85
2021-01-09 17:00:00 10.2 14 Norte 39 Noroeste 0.2 -- -- 79
2021-01-09 16:00:00 10.2 17 Norte 39 Norte 0 -- -- 86
2021-01-09 15:00:00 10.1 17 Norte 33 Norte 0.6 -- -- 95
2021-01-09 14:00:00 11.1 13 Norte 36 Norte 0.6 -- -- 80
2021-01-09 13:00:00 10.2 11 Norte 32 Noroeste 1 -- -- 91
2021-01-09 12:00:00 12.4 14 Noroeste 39 Norte 0 -- -- 80
2021-01-09 11:00:00 11.8 12 Noroeste 33 Noroeste 0 -- -- 78
2021-01-09 10:00:00 9.7 14 Norte 31 Noroeste 0 -- -- 91
2021-01-09 09:00:00 9.4 10 Oeste 27 Noroeste 0.2 -- -- 90
2021-01-09 08:00:00 8 8 Este 25 Norte 0.6 -- -- 93
2021-01-09 07:00:00 8.6 8 Sur 19 Sur 0 -- -- 88
2021-01-09 06:00:00 8.1 7 Sudeste 27 Sur 1.2 -- -- 94
2021-01-09 05:00:00 8.3 8 Sur 28 Sudoeste 0.8 -- -- 93
2021-01-09 04:00:00 9 8 Norte 31 Norte 0.6 -- -- 96
2021-01-09 03:00:00 9.2 5 Noroeste 30 Noroeste 1.4 -- -- 96
2021-01-09 02:00:00 8.7 9 Sudoeste 20 Noroeste 1.8 -- -- 94
2021-01-09 01:00:00 8.9 6 Sur 18 Sudoeste 0 -- -- 93
2021-01-09 00:00:00 9.3 6 Sur 23 Noroeste 1 -- -- 95
2021-01-08 23:00:00 9.4 6 Nordeste 28 Noroeste 0.4 -- -- 97
2021-01-08 22:00:00 9.5 9 Noroeste 20 Oeste 5 -- -- 98
2021-01-08 21:00:00 9 8 Sudoeste 30 Noroeste 5.4 -- -- 98
2021-01-08 20:00:00 9.4 6 Norte 21 Oeste 7.2 -- -- 98
2021-01-08 19:00:00 9.6 7 Noroeste 34 Norte 4.8 -- -- 99
2021-01-08 18:00:00 9.9 9 Norte 27 Norte 9 -- -- 99
2021-01-08 17:00:00 10.5 8 Norte 27 Norte 8.2 -- -- 99
2021-01-08 16:00:00 11 10 Noroeste 32 Noroeste 2 -- -- 98
2021-01-08 15:00:00 10.9 13 Norte 30 Noroeste 8.2 -- -- 98
2021-01-08 14:00:00 11.2 11 Norte 33 Norte 6.4 -- -- 98
2021-01-08 13:00:00 11.4 7 Este 32 Noroeste 11.2 -- -- 97
2021-01-08 12:00:00 11.7 9 Norte 38 Noroeste 1.8 -- -- 94
2021-01-08 11:00:00 12 9 Norte 28 Norte 6 -- -- 96
2021-01-08 10:00:00 12.1 9 Norte 24 Norte 0.2 -- -- 95
2021-01-08 09:00:00 12.1 15 Norte 33 Norte 0.6 -- -- 94
2021-01-08 08:00:00 12.1 10 Este 32 Sudeste 0.6 -- -- 95
2021-01-08 07:00:00 12.3 15 Este 26 Este 0 -- -- 93
2021-01-08 06:00:00 12.3 13 Sudeste 38 Sudoeste 3.2 -- -- 94
2021-01-08 05:00:00 14.5 12 Sur 57 Sudoeste 0 -- -- 71
2021-01-08 04:00:00 15.1 21 Sudoeste 54 Sudoeste 0 -- -- 62
2021-01-08 03:00:00 15.2 17 Sudoeste 57 Sudoeste 0 -- -- 66
2021-01-08 02:00:00 15.8 19 Sudoeste 54 Sudoeste 0 -- -- 70
2021-01-08 01:00:00 15.7 21 Sudoeste 51 Sudoeste 0 -- -- 70
2021-01-08 00:00:00 16.3 21 Sudoeste 54 Sudoeste 0 -- -- 72
2021-01-07 23:00:00 16.3 17 Sudoeste 49 Sudoeste 0 -- -- 72
2021-01-07 22:00:00 16.1 18 Sudoeste 61 Sur 0.2 -- -- 78
2021-01-07 21:00:00 16.1 21 Sudoeste 55 Sudoeste 1.2 -- -- 76
2021-01-07 20:00:00 16.2 21 Sudoeste 63 Sudoeste 0.4 -- -- 80
2021-01-07 19:00:00 16.5 22 Sudoeste 60 Sudoeste 0 -- -- 75
2021-01-07 18:00:00 17 23 Sudoeste 71 Oeste 0.2 -- -- 71
2021-01-07 17:00:00 16.6 22 Sudoeste 56 Sudoeste 0.2 -- -- 75
2021-01-07 16:00:00 17.3 23 Sudoeste 67 Sur 0 -- -- 74
2021-01-07 15:00:00 18.2 24 Sudoeste 66 Sudoeste 0 -- -- 68
2021-01-07 14:00:00 18.9 21 Sudoeste 58 Oeste 0 -- -- 65
2021-01-07 13:00:00 18.6 20 Sudoeste 67 Sur 0.2 -- -- 64
2021-01-07 12:00:00 18.4 19 Sudoeste 46 Oeste 0.6 -- -- 67
2021-01-07 11:00:00 16.9 5 Este 31 Sur 2.6 -- -- 87
2021-01-07 10:00:00 18.3 9 Sudoeste 46 Sur 0 -- -- 73
2021-01-07 09:00:00 18 15 Sudoeste 53 Oeste 0.2 -- -- 69
2021-01-07 08:00:00 16.1 15 Sudoeste 40 Sudoeste 1 -- -- 80
2021-01-07 07:00:00 16.6 8 Sur 31 Sur 0 -- -- 73
2021-01-07 06:00:00 13.8 6 Sur 17 Sudoeste 0 -- -- 90
2021-01-07 05:00:00 13.3 4 Oeste 13 Sudoeste 0 -- -- 93
2021-01-07 04:00:00 13.7 3 Norte 15 Norte 0 -- -- 88
2021-01-07 03:00:00 14.6 7 Nordeste 18 Nordeste 0 -- -- 86
2021-01-07 02:00:00 14.3 8 Nordeste 16 Oeste 0 -- -- 91
2021-01-07 01:00:00 14 4 Norte 10 Noroeste 0 -- -- 86
2021-01-07 00:00:00 14.8 5 Noroeste 17 Nordeste 0 -- -- 83
2021-01-06 23:00:00 13.5 4 Nordeste 11 Noroeste 0 -- -- 84
2021-01-06 22:00:00 14.6 5 Este 14 Este 0 -- -- 76
2021-01-06 21:00:00 14.9 5 Oeste 29 Sur 0 -- -- 74
2021-01-06 20:00:00 16.5 10 Sur 36 Sudeste 0 -- -- 69
2021-01-06 19:00:00 17.3 14 Sudeste 35 Sur 0 -- -- 71
2021-01-06 18:00:00 18.1 15 Sur 54 Sur 0 -- -- 61
2021-01-06 17:00:00 18.5 18 Sur 54 Sudoeste 0 -- -- 72
2021-01-06 16:00:00 18.7 24 Sudoeste 54 Sudoeste 0 -- -- 66
2021-01-06 15:00:00 19.4 17 Sudoeste 45 Sudoeste 0.2 -- -- 72
2021-01-06 14:00:00 18.6 15 Sudoeste 46 Sudoeste 1.2 -- -- 80
2021-01-06 13:00:00 19.9 12 Sudoeste 36 Sur 0 -- -- 68
2021-01-06 12:00:00 21.1 10 Sudoeste 46 Sudeste 0 -- -- 66
2021-01-06 11:00:00 22.5 12 Sudeste 39 Sudoeste 0 -- -- 61
2021-01-06 10:00:00 20.1 12 Sudoeste 47 Sudoeste 0 -- -- 65
2021-01-06 09:00:00 18 16 Sudoeste 53 Sudoeste 0 -- -- 66
2021-01-06 08:00:00 17.3 14 Sur 52 Sudoeste 0 -- -- 77
2021-01-06 07:00:00 17.5 15 Sudoeste 59 Oeste 0 -- -- 70
2021-01-06 06:00:00 16.9 10 Sudoeste 33 Sur 0 -- -- 70
2021-01-06 05:00:00 16.9 10 Sudoeste 37 Sudoeste 0 -- -- 66
2021-01-06 04:00:00 15 9 Sur 26 Sudoeste 0 -- -- 71
2021-01-06 03:00:00 13.5 3 Noroeste 10 Oeste 0 -- -- 86
2021-01-06 02:00:00 13.1 4 Sur 10 Oeste 0 -- -- 85
2021-01-06 01:00:00 12.1 4 Sudoeste 12 Sudoeste 0 -- -- 94
2021-01-06 00:00:00 11.1 4 Oeste 9 Oeste 0 -- -- 96
2021-01-05 23:00:00 11.6 5 Oeste 9 Oeste 0 -- -- 95
2021-01-05 22:00:00 11.4 8 Noroeste 10 Noroeste 0 -- -- 96
2021-01-05 21:00:00 12.8 6 Noroeste 10 Noroeste 0 -- -- 96
2021-01-05 20:00:00 12.2 4 Oeste 11 Oeste 0 -- -- 96
2021-01-05 19:00:00 12.2 3 Oeste 7 Oeste 0 -- -- 95
2021-01-05 18:00:00 15 2 Sudoeste 10 Este 0 -- -- 86
2021-01-05 17:00:00 18.2 5 Nordeste 13 Nordeste 0 -- -- 76
2021-01-05 16:00:00 18.5 4 Nordeste 9 Nordeste 0 -- -- 74
2021-01-05 15:00:00 18.2 4 Nordeste 16 Norte 0 -- -- 76
2021-01-05 14:00:00 18.7 9 Norte 24 Noroeste 0 -- -- 75
2021-01-05 13:00:00 21 8 Este 17 Este 0 -- -- 64
2021-01-05 12:00:00 20.5 8 Nordeste 14 Este 0 -- -- 63
2021-01-05 11:00:00 20.8 6 Nordeste 10 Este 0 -- -- 57
2021-01-05 10:00:00 21.2 5 Sudeste 12 Sudeste 0 -- -- 57
2021-01-05 09:00:00 18.1 4 Sudeste 8 Oeste 0 -- -- 65
2021-01-05 08:00:00 11 4 Oeste 13 Noroeste 0 -- -- 90
2021-01-05 07:00:00 10.8 5 Oeste 16 Oeste 0 -- -- 88
2021-01-05 06:00:00 10.6 5 Oeste 12 Oeste 0 -- -- 88
2021-01-05 05:00:00 10.9 9 Oeste 12 Oeste 0 -- -- 82
2021-01-05 04:00:00 14.4 8 Oeste 17 Sudoeste 0 -- -- 65
2021-01-05 03:00:00 14.3 7 Sudoeste 21 Oeste 0 -- -- 67
2021-01-05 02:00:00 12.2 5 Sudoeste 15 Sudoeste 0 -- -- 83
2021-01-05 01:00:00 11.7 4 Oeste 12 Oeste 0 -- -- 95
2021-01-05 00:00:00 15.1 7 Nordeste 19 Sur 0 -- -- 80
2021-01-04 23:00:00 13.9 7 Sudeste 18 Sudeste 0 -- -- 85
2021-01-04 22:00:00 12.3 5 Sudeste 16 Nordeste 0 -- -- 89
2021-01-04 21:00:00 12.4 6 Sudoeste 15 Sudeste 0 -- -- 90
2021-01-04 20:00:00 16.8 8 Norte 32 Noroeste 0 -- -- 66
2021-01-04 19:00:00 12.2 6 Noroeste 18 Noroeste 0 -- -- 97
2021-01-04 18:00:00 12.8 5 Norte 17 Noroeste 0 -- -- 93
2021-01-04 17:00:00 14 8 Noroeste 21 Noroeste 0 -- -- 87
2021-01-04 16:00:00 13.9 10 Norte 19 Norte 0 -- -- 87
2021-01-04 15:00:00 15.2 4 Nordeste 11 Nordeste 0 -- -- 80
2021-01-04 14:00:00 16 4 Nordeste 13 Nordeste 0 -- -- 76
2021-01-04 13:00:00 16.1 5 Nordeste 15 Norte 0 -- -- 75
2021-01-04 12:00:00 17 5 Nordeste 13 Norte 0 -- -- 68
2021-01-04 11:00:00 17.2 5 Nordeste 13 Nordeste 0.2 -- -- 65
2021-01-04 10:00:00 16.2 2 Nordeste 8 Sudoeste 0 -- -- 69
2021-01-04 09:00:00 12.6 4 Oeste 12 Noroeste 0 -- -- 82
2021-01-04 08:00:00 10.7 9 Noroeste 14 Oeste 0 -- -- 90
2021-01-04 07:00:00 10.8 5 Sudoeste 9 Sudoeste 0 -- -- 91
2021-01-04 06:00:00 10.4 4 Oeste 10 Sudoeste 0 -- -- 92
2021-01-04 05:00:00 10.4 5 Sudoeste 17 Oeste 0 -- -- 93
2021-01-04 04:00:00 11.4 8 Noroeste 16 Noroeste 0 -- -- 89
2021-01-04 03:00:00 10.1 6 Oeste 10 Oeste 0 -- -- 95
2021-01-04 02:00:00 9.3 3 Sudoeste 8 Oeste 0 -- -- 98
2021-01-04 01:00:00 9.6 5 Oeste 8 Sudoeste 0 -- -- 98
2021-01-04 00:00:00 9.6 5 Oeste 9 Noroeste 0 -- -- 99
2021-01-03 23:00:00 9.8 5 Oeste 9 Noroeste 0 -- -- 97
2021-01-03 22:00:00 11.1 3 Sur 5 Noroeste 0 -- -- 93
2021-01-03 21:00:00 11.5 4 Noroeste 10 Sudoeste 0 -- -- 91
2021-01-03 20:00:00 11.4 4 Sudoeste 11 Sur 0 -- -- 89
2021-01-03 19:00:00 11.4 4 Sur 15 Sudeste 0 -- -- 90
2021-01-03 18:00:00 11.8 7 Sudeste 13 Este 0 -- -- 88
2021-01-03 17:00:00 13.2 4 Este 12 Este 0 -- -- 83
2021-01-03 16:00:00 13.6 7 Sudeste 13 Este 0 -- -- 82
2021-01-03 15:00:00 13.6 5 Este 12 Este 0 -- -- 85
2021-01-03 14:00:00 13.2 5 Este 13 Este 0 -- -- 89
2021-01-03 13:00:00 13.8 5 Este 11 Este 0 -- -- 84
2021-01-03 12:00:00 13.5 5 Este 10 Sudeste 0 -- -- 85
2021-01-03 11:00:00 13.4 4 Este 9 Sudeste 0 -- -- 85
2021-01-03 10:00:00 13 4 Sudeste 8 Este 0 -- -- 84
2021-01-03 09:00:00 10.9 3 Sur 8 Sudoeste 0 -- -- 89
2021-01-03 08:00:00 9.6 5 Sudoeste 9 Sudoeste 0 -- -- 91
2021-01-03 07:00:00 9.2 5 Sudoeste 8 Sur 0 -- -- 95
2021-01-03 06:00:00 9.9 4 Sudoeste 6 Sudoeste 0 -- -- 97
2021-01-03 05:00:00 8.8 2 Sur 8 Sur 0 -- -- 96
2021-01-03 04:00:00 9.6 4 Sudoeste 6 Sudoeste 0 -- -- 95
2021-01-03 03:00:00 10.5 3 Sur 12 Sudeste 0 -- -- 93
2021-01-03 02:00:00 10.8 7 Sudeste 14 Sudeste 0 -- -- 92
2021-01-03 01:00:00 10.7 6 Sudeste 12 Sudeste 0 -- -- 93
2021-01-03 00:00:00 10.5 3 Sur 12 Sudeste 0 -- -- 93
2021-01-02 23:00:00 10.3 0 Calma 7 Sudeste 0 -- -- 93
2021-01-02 22:00:00 9.8 4 Sur 12 Sudeste 0 -- -- 93
2021-01-02 21:00:00 10.9 5 Sudeste 10 Este 0 -- -- 91
2021-01-02 20:00:00 10.8 3 Sudeste 9 Sudeste 0 -- -- 94
2021-01-02 19:00:00 10.9 3 Sudeste 8 Nordeste 0 -- -- 95
2021-01-02 18:00:00 11.6 4 Este 11 Este 0 -- -- 94
2021-01-02 17:00:00 12.2 6 Nordeste 13 Norte 0 -- -- 93
2021-01-02 16:00:00 13.9 4 Nordeste 8 Norte 0 -- -- 72
2021-01-02 15:00:00 13 6 Nordeste 12 Nordeste 0 -- -- 81
2021-01-02 14:00:00 13.1 6 Nordeste 10 Este 0 -- -- 78
2021-01-02 13:00:00 12.8 0 Calma 7 Este 0 -- -- 78